Smithland, Texas
Current Conditions -  °F | °C
As of 5:55 AM on Thursday 27 Nov 2014 (Local Time) from KASL Reporting Station
Clear Clear  
Wind Chill: 40°   Ceiling: Unl
Heat Index: 43°   Visibility: 10mi
Dew Point: 29°   Wind: 6mph
Humidity: 58%   Direction: 350°N
Pressure: 30.49"   Gusts: NA
Location:  32.7902°N, 94.3019°W
Report Text: KASL 271155Z AUTO 35005KT 10SM CLR 06/M01 A3049 RMK AO1 T00621015 10105 20062
Loading
Personal Weather Stations






























Interactive Weather Map New forecast layout! Learn more

10-Day Weather Forecast

Advertisements
Track Severe Weather on mobile